sensor_id;sensor_type;location;lat;lon;timestamp;P1;durP1;ratioP1;P2;durP2;ratioP2
63320;SDS011;49449;48.800;9.534;2023-07-30T00:00:38;2.65;;;1.85;;
63320;SDS011;49449;48.800;9.534;2023-07-30T00:03:06;2.13;;;1.23;;
63320;SDS011;49449;48.800;9.534;2023-07-30T00:05:34;2.28;;;2.08;;
63320;SDS011;49449;48.800;9.534;2023-07-30T00:08:02;2.45;;;1.60;;
63320;SDS011;49449;48.800;9.534;2023-07-30T00:10:29;1.33;;;1.23;;
63320;SDS011;49449;48.800;9.534;2023-07-30T00:12:58;1.40;;;1.30;;
63320;SDS011;49449;48.800;9.534;2023-07-30T00:15:26;1.50;;;1.13;;
63320;SDS011;49449;48.800;9.534;2023-07-30T00:17:54;1.30;;;1.20;;
63320;SDS011;49449;48.800;9.534;2023-07-30T00:20:22;1.90;;;1.15;;
63320;SDS011;49449;48.800;9.534;2023-07-30T00:22:50;2.67;;;1.08;;
63320;SDS011;49449;48.800;9.534;2023-07-30T00:25:18;1.30;;;1.20;;
63320;SDS011;49449;48.800;9.534;2023-07-30T00:27:46;1.77;;;1.30;;
63320;SDS011;49449;48.800;9.534;2023-07-30T00:30:15;1.00;;;0.85;;
63320;SDS011;49449;48.800;9.534;2023-07-30T00:32:43;1.75;;;0.98;;
63320;SDS011;49449;48.800;9.534;2023-07-30T00:35:11;1.15;;;0.82;;
63320;SDS011;49449;48.800;9.534;2023-07-30T00:37:39;2.03;;;1.33;;
63320;SDS011;49449;48.800;9.534;2023-07-30T00:40:07;2.05;;;1.25;;
63320;SDS011;49449;48.800;9.534;2023-07-30T00:42:35;0.88;;;0.85;;
63320;SDS011;49449;48.800;9.534;2023-07-30T00:45:03;1.13;;;0.98;;
63320;SDS011;49449;48.800;9.534;2023-07-30T00:47:33;1.15;;;1.08;;
63320;SDS011;49449;48.800;9.534;2023-07-30T00:50:01;1.20;;;0.88;;
63320;SDS011;49449;48.800;9.534;2023-07-30T00:52:30;1.58;;;1.00;;
63320;SDS011;49449;48.800;9.534;2023-07-30T00:54:57;0.95;;;0.95;;
63320;SDS011;49449;48.800;9.534;2023-07-30T00:57:29;1.40;;;1.30;;
63320;SDS011;49449;48.800;9.534;2023-07-30T00:59:58;1.13;;;0.95;;
63320;SDS011;49449;48.800;9.534;2023-07-30T01:02:26;1.40;;;1.00;;
63320;SDS011;49449;48.800;9.534;2023-07-30T01:04:56;1.23;;;1.00;;
63320;SDS011;49449;48.800;9.534;2023-07-30T01:07:26;1.25;;;1.10;;
63320;SDS011;49449;48.800;9.534;2023-07-30T01:09:54;5.72;;;1.13;;
63320;SDS011;49449;48.800;9.534;2023-07-30T01:12:22;2.10;;;1.30;;
63320;SDS011;49449;48.800;9.534;2023-07-30T01:14:50;1.50;;;1.40;;
63320;SDS011;49449;48.800;9.534;2023-07-30T01:17:19;1.83;;;1.10;;
63320;SDS011;49449;48.800;9.534;2023-07-30T01:19:49;1.10;;;0.95;;
63320;SDS011;49449;48.800;9.534;2023-07-30T01:22:18;2.00;;;1.20;;
63320;SDS011;49449;48.800;9.534;2023-07-30T01:24:45;1.20;;;1.10;;
63320;SDS011;49449;48.800;9.534;2023-07-30T01:27:14;2.58;;;1.60;;
63320;SDS011;49449;48.800;9.534;2023-07-30T01:29:48;1.45;;;1.35;;
63320;SDS011;49449;48.800;9.534;2023-07-30T01:32:27;1.48;;;1.20;;
63320;SDS011;49449;48.800;9.534;2023-07-30T01:34:57;1.60;;;1.30;;
63320;SDS011;49449;48.800;9.534;2023-07-30T01:37:28;2.60;;;1.52;;
63320;SDS011;49449;48.800;9.534;2023-07-30T01:39:57;2.10;;;1.20;;
63320;SDS011;49449;48.800;9.534;2023-07-30T01:42:27;1.42;;;1.30;;
63320;SDS011;49449;48.800;9.534;2023-07-30T01:44:57;2.58;;;2.00;;
63320;SDS011;49449;48.800;9.534;2023-07-30T01:47:25;1.40;;;1.30;;
63320;SDS011;49449;48.800;9.534;2023-07-30T01:49:52;1.33;;;1.10;;
63320;SDS011;49449;48.800;9.534;2023-07-30T01:52:20;1.35;;;1.20;;
63320;SDS011;49449;48.800;9.534;2023-07-30T01:54:49;1.58;;;1.30;;
63320;SDS011;49449;48.800;9.534;2023-07-30T01:57:17;1.30;;;1.30;;
63320;SDS011;49449;48.800;9.534;2023-07-30T01:59:45;2.05;;;1.38;;
63320;SDS011;49449;48.800;9.534;2023-07-30T02:02:13;1.58;;;1.40;;
63320;SDS011;49449;48.800;9.534;2023-07-30T02:04:41;1.30;;;1.20;;
63320;SDS011;49449;48.800;9.534;2023-07-30T02:07:08;1.65;;;1.55;;
63320;SDS011;49449;48.800;9.534;2023-07-30T02:09:36;1.20;;;1.10;;
63320;SDS011;49449;48.800;9.534;2023-07-30T02:12:06;2.47;;;1.20;;
63320;SDS011;49449;48.800;9.534;2023-07-30T02:14:34;1.48;;;1.30;;
63320;SDS011;49449;48.800;9.534;2023-07-30T02:17:02;2.15;;;1.42;;
63320;SDS011;49449;48.800;9.534;2023-07-30T02:19:31;2.20;;;1.20;;
63320;SDS011;49449;48.800;9.534;2023-07-30T02:21:58;1.52;;;1.35;;
63320;SDS011;49449;48.800;9.534;2023-07-30T02:24:26;1.55;;;1.00;;
63320;SDS011;49449;48.800;9.534;2023-07-30T02:26:54;1.77;;;1.17;;
63320;SDS011;49449;48.800;9.534;2023-07-30T02:29:23;1.10;;;1.10;;
63320;SDS011;49449;48.800;9.534;2023-07-30T02:31:51;1.63;;;1.48;;
63320;SDS011;49449;48.800;9.534;2023-07-30T02:34:19;2.47;;;1.55;;
63320;SDS011;49449;48.800;9.534;2023-07-30T02:36:47;1.30;;;1.20;;
63320;SDS011;49449;48.800;9.534;2023-07-30T02:39:16;1.58;;;1.38;;
63320;SDS011;49449;48.800;9.534;2023-07-30T02:41:44;1.90;;;1.23;;
63320;SDS011;49449;48.800;9.534;2023-07-30T02:44:12;1.35;;;1.00;;
63320;SDS011;49449;48.800;9.534;2023-07-30T02:46:41;1.42;;;1.33;;
63320;SDS011;49449;48.800;9.534;2023-07-30T02:49:09;1.23;;;1.13;;
63320;SDS011;49449;48.800;9.534;2023-07-30T02:51:36;1.40;;;1.00;;
63320;SDS011;49449;48.800;9.534;2023-07-30T02:54:04;1.77;;;1.20;;
63320;SDS011;49449;48.800;9.534;2023-07-30T02:56:33;1.35;;;1.25;;
63320;SDS011;49449;48.800;9.534;2023-07-30T02:59:01;1.52;;;1.42;;
63320;SDS011;49449;48.800;9.534;2023-07-30T03:01:29;2.28;;;1.13;;
63320;SDS011;49449;48.800;9.534;2023-07-30T03:03:58;1.63;;;1.17;;
63320;SDS011;49449;48.800;9.534;2023-07-30T03:06:25;2.50;;;1.20;;
63320;SDS011;49449;48.800;9.534;2023-07-30T03:08:53;2.05;;;1.20;;
63320;SDS011;49449;48.800;9.534;2023-07-30T03:11:21;1.83;;;1.27;;
63320;SDS011;49449;48.800;9.534;2023-07-30T03:13:49;1.38;;;1.27;;
63320;SDS011;49449;48.800;9.534;2023-07-30T03:16:17;2.78;;;1.10;;
63320;SDS011;49449;48.800;9.534;2023-07-30T03:18:44;1.95;;;1.20;;
63320;SDS011;49449;48.800;9.534;2023-07-30T03:21:13;1.70;;;1.10;;
63320;SDS011;49449;48.800;9.534;2023-07-30T03:23:41;3.05;;;1.70;;
63320;SDS011;49449;48.800;9.534;2023-07-30T03:26:10;1.30;;;1.20;;
63320;SDS011;49449;48.800;9.534;2023-07-30T03:28:38;1.67;;;1.58;;
63320;SDS011;49449;48.800;9.534;2023-07-30T03:31:06;2.20;;;1.20;;
63320;SDS011;49449;48.800;9.534;2023-07-30T03:33:34;1.45;;;1.35;;
63320;SDS011;49449;48.800;9.534;2023-07-30T03:36:02;2.25;;;1.60;;
63320;SDS011;49449;48.800;9.534;2023-07-30T03:38:31;1.38;;;1.20;;
63320;SDS011;49449;48.800;9.534;2023-07-30T03:40:59;1.30;;;1.20;;
63320;SDS011;49449;48.800;9.534;2023-07-30T03:43:27;2.22;;;1.63;;
63320;SDS011;49449;48.800;9.534;2023-07-30T03:45:55;1.27;;;1.23;;
63320;SDS011;49449;48.800;9.534;2023-07-30T03:48:23;1.63;;;1.40;;
63320;SDS011;49449;48.800;9.534;2023-07-30T03:50:51;1.45;;;1.35;;
63320;SDS011;49449;48.800;9.534;2023-07-30T03:53:19;1.30;;;1.20;;
63320;SDS011;49449;48.800;9.534;2023-07-30T03:55:48;2.42;;;1.73;;
63320;SDS011;49449;48.800;9.534;2023-07-30T03:58:16;1.95;;;1.10;;
63320;SDS011;49449;48.800;9.534;2023-07-30T04:00:44;1.52;;;1.42;;
63320;SDS011;49449;48.800;9.534;2023-07-30T04:03:12;1.58;;;1.40;;
63320;SDS011;49449;48.800;9.534;2023-07-30T04:05:39;3.55;;;1.33;;
63320;SDS011;49449;48.800;9.534;2023-07-30T04:08:07;1.92;;;1.52;;
63320;SDS011;49449;48.800;9.534;2023-07-30T04:10:35;1.83;;;1.42;;
63320;SDS011;49449;48.800;9.534;2023-07-30T04:13:04;3.42;;;1.60;;
63320;SDS011;49449;48.800;9.534;2023-07-30T04:15:34;1.38;;;1.27;;
63320;SDS011;49449;48.800;9.534;2023-07-30T04:18:02;1.70;;;1.60;;
63320;SDS011;49449;48.800;9.534;2023-07-30T04:20:30;2.22;;;1.75;;
63320;SDS011;49449;48.800;9.534;2023-07-30T04:22:56;1.55;;;1.45;;
63320;SDS011;49449;48.800;9.534;2023-07-30T04:25:24;2.33;;;1.40;;
63320;SDS011;49449;48.800;9.534;2023-07-30T04:27:52;2.45;;;1.58;;
63320;SDS011;49449;48.800;9.534;2023-07-30T04:30:21;2.50;;;1.50;;
63320;SDS011;49449;48.800;9.534;2023-07-30T04:32:49;1.80;;;1.70;;
63320;SDS011;49449;48.800;9.534;2023-07-30T04:35:16;1.98;;;1.48;;
63320;SDS011;49449;48.800;9.534;2023-07-30T04:37:44;1.92;;;1.48;;
63320;SDS011;49449;48.800;9.534;2023-07-30T04:40:12;1.33;;;1.33;;
63320;SDS011;49449;48.800;9.534;2023-07-30T04:42:40;2.00;;;1.90;;
63320;SDS011;49449;48.800;9.534;2023-07-30T04:45:08;1.70;;;1.60;;
63320;SDS011;49449;48.800;9.534;2023-07-30T04:47:37;2.00;;;1.77;;
63320;SDS011;49449;48.800;9.534;2023-07-30T04:50:05;1.83;;;1.73;;
63320;SDS011;49449;48.800;9.534;2023-07-30T04:52:33;1.70;;;1.60;;
63320;SDS011;49449;48.800;9.534;2023-07-30T04:55:01;1.55;;;1.45;;
63320;SDS011;49449;48.800;9.534;2023-07-30T04:57:29;2.17;;;1.52;;
63320;SDS011;49449;48.800;9.534;2023-07-30T04:59:57;3.17;;;1.80;;
63320;SDS011;49449;48.800;9.534;2023-07-30T05:02:24;1.70;;;1.60;;
63320;SDS011;49449;48.800;9.534;2023-07-30T05:04:54;2.67;;;1.70;;
63320;SDS011;49449;48.800;9.534;2023-07-30T05:07:21;1.70;;;1.60;;
63320;SDS011;49449;48.800;9.534;2023-07-30T05:09:49;1.80;;;1.70;;
63320;SDS011;49449;48.800;9.534;2023-07-30T05:12:17;2.33;;;1.73;;
63320;SDS011;49449;48.800;9.534;2023-07-30T05:14:45;2.65;;;2.22;;
63320;SDS011;49449;48.800;9.534;2023-07-30T05:17:13;2.85;;;1.67;;
63320;SDS011;49449;48.800;9.534;2023-07-30T05:19:40;2.78;;;2.47;;
63320;SDS011;49449;48.800;9.534;2023-07-30T05:22:09;2.17;;;1.98;;
63320;SDS011;49449;48.800;9.534;2023-07-30T05:24:37;2.63;;;1.80;;
63320;SDS011;49449;48.800;9.534;2023-07-30T05:27:05;2.67;;;1.58;;
63320;SDS011;49449;48.800;9.534;2023-07-30T05:29:33;2.35;;;1.77;;
63320;SDS011;49449;48.800;9.534;2023-07-30T05:32:01;2.20;;;2.00;;
63320;SDS011;49449;48.800;9.534;2023-07-30T05:34:29;2.28;;;2.08;;
63320;SDS011;49449;48.800;9.534;2023-07-30T05:36:57;2.47;;;1.85;;
63320;SDS011;49449;48.800;9.534;2023-07-30T05:39:26;2.95;;;2.03;;
63320;SDS011;49449;48.800;9.534;2023-07-30T05:41:53;3.42;;;2.28;;
63320;SDS011;49449;48.800;9.534;2023-07-30T05:44:21;2.90;;;2.42;;
63320;SDS011;49449;48.800;9.534;2023-07-30T05:46:49;2.10;;;2.00;;
63320;SDS011;49449;48.800;9.534;2023-07-30T05:49:17;2.67;;;2.40;;
63320;SDS011;49449;48.800;9.534;2023-07-30T05:51:44;2.85;;;2.22;;
63320;SDS011;49449;48.800;9.534;2023-07-30T05:54:12;2.30;;;1.90;;
63320;SDS011;49449;48.800;9.534;2023-07-30T05:56:41;2.72;;;2.22;;
63320;SDS011;49449;48.800;9.534;2023-07-30T05:59:09;2.30;;;2.10;;
63320;SDS011;49449;48.800;9.534;2023-07-30T06:01:37;2.15;;;1.98;;
63320;SDS011;49449;48.800;9.534;2023-07-30T06:04:05;3.35;;;2.20;;
63320;SDS011;49449;48.800;9.534;2023-07-30T06:06:33;2.22;;;1.77;;
63320;SDS011;49449;48.800;9.534;2023-07-30T06:09:00;2.28;;;2.08;;
63320;SDS011;49449;48.800;9.534;2023-07-30T06:11:28;2.08;;;1.90;;
63320;SDS011;49449;48.800;9.534;2023-07-30T06:13:57;4.85;;;2.40;;
63320;SDS011;49449;48.800;9.534;2023-07-30T06:16:25;3.38;;;1.80;;
63320;SDS011;49449;48.800;9.534;2023-07-30T06:18:53;2.75;;;2.00;;
63320;SDS011;49449;48.800;9.534;2023-07-30T06:21:21;2.15;;;1.92;;
63320;SDS011;49449;48.800;9.534;2023-07-30T06:23:48;3.08;;;2.30;;
63320;SDS011;49449;48.800;9.534;2023-07-30T06:26:17;2.25;;;2.05;;
63320;SDS011;49449;48.800;9.534;2023-07-30T06:28:44;2.13;;;2.00;;
63320;SDS011;49449;48.800;9.534;2023-07-30T06:31:14;3.50;;;2.60;;
63320;SDS011;49449;48.800;9.534;2023-07-30T06:33:41;2.65;;;2.30;;
63320;SDS011;49449;48.800;9.534;2023-07-30T06:36:09;2.38;;;1.77;;
63320;SDS011;49449;48.800;9.534;2023-07-30T06:38:37;2.65;;;2.17;;
63320;SDS011;49449;48.800;9.534;2023-07-30T06:41:05;3.15;;;2.42;;
63320;SDS011;49449;48.800;9.534;2023-07-30T06:43:33;2.42;;;2.22;;
63320;SDS011;49449;48.800;9.534;2023-07-30T06:46:00;2.67;;;2.47;;
63320;SDS011;49449;48.800;9.534;2023-07-30T06:48:30;2.65;;;2.45;;
63320;SDS011;49449;48.800;9.534;2023-07-30T06:50:57;2.88;;;2.40;;
63320;SDS011;49449;48.800;9.534;2023-07-30T06:53:25;2.60;;;2.35;;
63320;SDS011;49449;48.800;9.534;2023-07-30T06:55:53;2.60;;;2.40;;
63320;SDS011;49449;48.800;9.534;2023-07-30T06:58:21;2.63;;;2.22;;
63320;SDS011;49449;48.800;9.534;2023-07-30T07:00:48;2.65;;;2.45;;
63320;SDS011;49449;48.800;9.534;2023-07-30T07:03:17;2.10;;;2.00;;
63320;SDS011;49449;48.800;9.534;2023-07-30T07:05:51;3.10;;;2.20;;
63320;SDS011;49449;48.800;9.534;2023-07-30T07:08:20;4.53;;;2.42;;
63320;SDS011;49449;48.800;9.534;2023-07-30T07:10:48;2.20;;;2.00;;
63320;SDS011;49449;48.800;9.534;2023-07-30T07:13:16;2.95;;;2.65;;
63320;SDS011;49449;48.800;9.534;2023-07-30T07:15:46;2.60;;;2.15;;
63320;SDS011;49449;48.800;9.534;2023-07-30T07:18:14;3.30;;;2.45;;
63320;SDS011;49449;48.800;9.534;2023-07-30T07:20:41;3.15;;;2.30;;
63320;SDS011;49449;48.800;9.534;2023-07-30T07:23:10;2.50;;;2.30;;
63320;SDS011;49449;48.800;9.534;2023-07-30T07:25:40;3.50;;;2.47;;
63320;SDS011;49449;48.800;9.534;2023-07-30T07:28:07;3.42;;;2.38;;
63320;SDS011;49449;48.800;9.534;2023-07-30T07:30:36;2.45;;;2.25;;
63320;SDS011;49449;48.800;9.534;2023-07-30T07:33:04;3.47;;;3.00;;
63320;SDS011;49449;48.800;9.534;2023-07-30T07:35:32;3.05;;;2.72;;
63320;SDS011;49449;48.800;9.534;2023-07-30T07:38:00;2.85;;;2.65;;
63320;SDS011;49449;48.800;9.534;2023-07-30T07:40:29;3.65;;;2.25;;
63320;SDS011;49449;48.800;9.534;2023-07-30T07:42:57;2.80;;;2.10;;
63320;SDS011;49449;48.800;9.534;2023-07-30T07:45:25;2.88;;;2.03;;
63320;SDS011;49449;48.800;9.534;2023-07-30T07:47:52;2.40;;;2.22;;
63320;SDS011;49449;48.800;9.534;2023-07-30T07:50:20;2.97;;;2.70;;
63320;SDS011;49449;48.800;9.534;2023-07-30T07:52:48;2.28;;;2.00;;
63320;SDS011;49449;48.800;9.534;2023-07-30T07:55:16;2.20;;;2.03;;
63320;SDS011;49449;48.800;9.534;2023-07-30T07:57:45;2.38;;;2.20;;
63320;SDS011;49449;48.800;9.534;2023-07-30T08:00:13;1.80;;;1.65;;
63320;SDS011;49449;48.800;9.534;2023-07-30T08:02:41;2.13;;;1.92;;
63320;SDS011;49449;48.800;9.534;2023-07-30T08:05:09;2.15;;;1.98;;
63320;SDS011;49449;48.800;9.534;2023-07-30T08:07:37;1.77;;;1.67;;
63320;SDS011;49449;48.800;9.534;2023-07-30T08:10:05;1.88;;;1.77;;
63320;SDS011;49449;48.800;9.534;2023-07-30T08:12:34;1.60;;;1.50;;
63320;SDS011;49449;48.800;9.534;2023-07-30T08:15:03;1.83;;;1.70;;
63320;SDS011;49449;48.800;9.534;2023-07-30T08:17:31;1.75;;;1.30;;
63320;SDS011;49449;48.800;9.534;2023-07-30T08:19:59;1.40;;;1.30;;
63320;SDS011;49449;48.800;9.534;2023-07-30T08:22:26;1.55;;;1.33;;
63320;SDS011;49449;48.800;9.534;2023-07-30T08:24:54;1.33;;;1.23;;
63320;SDS011;49449;48.800;9.534;2023-07-30T08:27:22;1.55;;;1.45;;
63320;SDS011;49449;48.800;9.534;2023-07-30T08:29:50;1.77;;;1.42;;
63320;SDS011;49449;48.800;9.534;2023-07-30T08:32:19;1.45;;;1.35;;
63320;SDS011;49449;48.800;9.534;2023-07-30T08:34:47;1.40;;;1.30;;
63320;SDS011;49449;48.800;9.534;2023-07-30T08:37:15;1.58;;;1.48;;
63320;SDS011;49449;48.800;9.534;2023-07-30T08:39:43;1.60;;;1.50;;
63320;SDS011;49449;48.800;9.534;2023-07-30T08:42:11;1.88;;;1.50;;
63320;SDS011;49449;48.800;9.534;2023-07-30T08:44:39;1.90;;;1.80;;
63320;SDS011;49449;48.800;9.534;2023-07-30T08:47:07;2.03;;;1.80;;
63320;SDS011;49449;48.800;9.534;2023-07-30T08:49:36;2.72;;;1.58;;
63320;SDS011;49449;48.800;9.534;2023-07-30T08:52:06;1.58;;;1.48;;
63320;SDS011;49449;48.800;9.534;2023-07-30T08:54:36;2.00;;;1.58;;
63320;SDS011;49449;48.800;9.534;2023-07-30T08:57:05;2.58;;;1.75;;
63320;SDS011;49449;48.800;9.534;2023-07-30T08:59:37;2.15;;;1.60;;
63320;SDS011;49449;48.800;9.534;2023-07-30T09:02:11;1.88;;;1.67;;
63320;SDS011;49449;48.800;9.534;2023-07-30T09:04:46;1.63;;;1.52;;
63320;SDS011;49449;48.800;9.534;2023-07-30T09:07:17;3.92;;;1.50;;
63320;SDS011;49449;48.800;9.534;2023-07-30T09:09:45;2.40;;;1.38;;
63320;SDS011;49449;48.800;9.534;2023-07-30T09:12:13;1.80;;;1.70;;
63320;SDS011;49449;48.800;9.534;2023-07-30T09:14:42;3.08;;;1.65;;
63320;SDS011;49449;48.800;9.534;2023-07-30T09:17:11;1.67;;;1.58;;
63320;SDS011;49449;48.800;9.534;2023-07-30T09:19:45;2.55;;;1.30;;
63320;SDS011;49449;48.800;9.534;2023-07-30T09:22:15;1.65;;;1.50;;
63320;SDS011;49449;48.800;9.534;2023-07-30T09:24:47;1.60;;;1.50;;
63320;SDS011;49449;48.800;9.534;2023-07-30T09:27:19;1.90;;;1.80;;
63320;SDS011;49449;48.800;9.534;2023-07-30T09:29:52;1.75;;;1.65;;
63320;SDS011;49449;48.800;9.534;2023-07-30T09:32:25;1.50;;;1.27;;
63320;SDS011;49449;48.800;9.534;2023-07-30T09:34:55;1.25;;;1.23;;
63320;SDS011;49449;48.800;9.534;2023-07-30T09:37:22;1.55;;;1.45;;
63320;SDS011;49449;48.800;9.534;2023-07-30T09:39:51;1.63;;;1.40;;
63320;SDS011;49449;48.800;9.534;2023-07-30T09:42:19;1.75;;;1.60;;
63320;SDS011;49449;48.800;9.534;2023-07-30T09:44:47;1.80;;;1.50;;
63320;SDS011;49449;48.800;9.534;2023-07-30T09:47:15;1.67;;;1.50;;
63320;SDS011;49449;48.800;9.534;2023-07-30T09:49:43;2.47;;;1.48;;
63320;SDS011;49449;48.800;9.534;2023-07-30T09:52:12;2.75;;;1.60;;
63320;SDS011;49449;48.800;9.534;2023-07-30T09:54:43;2.10;;;1.90;;
63320;SDS011;49449;48.800;9.534;2023-07-30T09:57:11;2.28;;;1.90;;
63320;SDS011;49449;48.800;9.534;2023-07-30T09:59:39;1.80;;;1.70;;
63320;SDS011;49449;48.800;9.534;2023-07-30T10:02:07;1.77;;;1.67;;
63320;SDS011;49449;48.800;9.534;2023-07-30T10:04:38;1.95;;;1.50;;
63320;SDS011;49449;48.800;9.534;2023-07-30T10:07:11;2.72;;;1.70;;
63320;SDS011;49449;48.800;9.534;2023-07-30T10:09:46;2.42;;;1.70;;
63320;SDS011;49449;48.800;9.534;2023-07-30T10:12:18;1.80;;;1.70;;
63320;SDS011;49449;48.800;9.534;2023-07-30T10:14:52;2.30;;;1.75;;
63320;SDS011;49449;48.800;9.534;2023-07-30T10:17:20;2.05;;;1.80;;
63320;SDS011;49449;48.800;9.534;2023-07-30T10:19:48;1.70;;;1.58;;
63320;SDS011;49449;48.800;9.534;2023-07-30T10:22:22;1.95;;;1.67;;
63320;SDS011;49449;48.800;9.534;2023-07-30T10:24:57;2.05;;;1.88;;
63320;SDS011;49449;48.800;9.534;2023-07-30T10:27:27;2.85;;;2.50;;
63320;SDS011;49449;48.800;9.534;2023-07-30T10:30:10;3.38;;;2.35;;
63320;SDS011;49449;48.800;9.534;2023-07-30T10:32:39;2.10;;;1.90;;
63320;SDS011;49449;48.800;9.534;2023-07-30T10:35:07;2.03;;;1.90;;
63320;SDS011;49449;48.800;9.534;2023-07-30T10:37:37;1.95;;;1.83;;
63320;SDS011;49449;48.800;9.534;2023-07-30T10:40:16;1.95;;;1.75;;
63320;SDS011;49449;48.800;9.534;2023-07-30T10:42:45;3.70;;;2.10;;
63320;SDS011;49449;48.800;9.534;2023-07-30T10:45:12;2.40;;;2.00;;
63320;SDS011;49449;48.800;9.534;2023-07-30T10:47:40;1.92;;;1.75;;
63320;SDS011;49449;48.800;9.534;2023-07-30T10:50:09;2.40;;;2.20;;
63320;SDS011;49449;48.800;9.534;2023-07-30T10:52:40;2.35;;;2.10;;
63320;SDS011;49449;48.800;9.534;2023-07-30T10:55:08;3.70;;;2.13;;
63320;SDS011;49449;48.800;9.534;2023-07-30T10:57:36;2.28;;;2.08;;
63320;SDS011;49449;48.800;9.534;2023-07-30T11:00:06;2.17;;;1.92;;
63320;SDS011;49449;48.800;9.534;2023-07-30T11:02:34;2.08;;;1.98;;
63320;SDS011;49449;48.800;9.534;2023-07-30T11:05:12;3.20;;;2.15;;
63320;SDS011;49449;48.800;9.534;2023-07-30T11:07:49;1.98;;;1.88;;
63320;SDS011;49449;48.800;9.534;2023-07-30T11:10:18;2.38;;;2.15;;
63320;SDS011;49449;48.800;9.534;2023-07-30T11:12:47;3.42;;;2.10;;
63320;SDS011;49449;48.800;9.534;2023-07-30T11:17:44;2.90;;;2.30;;
63320;SDS011;49449;48.800;9.534;2023-07-30T11:20:21;2.80;;;2.03;;
63320;SDS011;49449;48.800;9.534;2023-07-30T11:22:51;2.78;;;2.05;;
63320;SDS011;49449;48.800;9.534;2023-07-30T11:25:19;2.58;;;2.10;;
63320;SDS011;49449;48.800;9.534;2023-07-30T11:27:47;4.03;;;2.22;;
63320;SDS011;49449;48.800;9.534;2023-07-30T11:30:14;2.10;;;1.90;;
63320;SDS011;49449;48.800;9.534;2023-07-30T11:32:42;3.00;;;2.00;;
63320;SDS011;49449;48.800;9.534;2023-07-30T11:35:11;2.05;;;1.80;;
63320;SDS011;49449;48.800;9.534;2023-07-30T11:37:40;2.63;;;2.10;;
63320;SDS011;49449;48.800;9.534;2023-07-30T11:40:10;2.30;;;2.10;;
63320;SDS011;49449;48.800;9.534;2023-07-30T11:42:38;2.72;;;2.17;;
63320;SDS011;49449;48.800;9.534;2023-07-30T11:45:18;2.17;;;1.98;;
63320;SDS011;49449;48.800;9.534;2023-07-30T11:47:47;3.53;;;2.08;;
63320;SDS011;49449;48.800;9.534;2023-07-30T11:50:15;4.47;;;2.10;;
63320;SDS011;49449;48.800;9.534;2023-07-30T11:52:53;2.28;;;2.08;;
63320;SDS011;49449;48.800;9.534;2023-07-30T11:55:23;2.45;;;2.10;;
63320;SDS011;49449;48.800;9.534;2023-07-30T11:57:51;2.22;;;1.95;;
63320;SDS011;49449;48.800;9.534;2023-07-30T12:00:20;2.10;;;1.95;;
63320;SDS011;49449;48.800;9.534;2023-07-30T12:02:48;1.83;;;1.73;;
63320;SDS011;49449;48.800;9.534;2023-07-30T12:05:16;2.42;;;1.90;;
63320;SDS011;49449;48.800;9.534;2023-07-30T12:07:46;2.22;;;1.98;;
63320;SDS011;49449;48.800;9.534;2023-07-30T12:12:46;2.95;;;1.85;;
63320;SDS011;49449;48.800;9.534;2023-07-30T12:15:13;2.95;;;2.00;;
63320;SDS011;49449;48.800;9.534;2023-07-30T12:17:42;2.22;;;1.90;;
63320;SDS011;49449;48.800;9.534;2023-07-30T12:20:11;2.42;;;1.80;;
63320;SDS011;49449;48.800;9.534;2023-07-30T12:22:39;1.90;;;1.60;;
63320;SDS011;49449;48.800;9.534;2023-07-30T12:25:08;2.75;;;2.15;;
63320;SDS011;49449;48.800;9.534;2023-07-30T12:27:36;1.88;;;1.75;;
63320;SDS011;49449;48.800;9.534;2023-07-30T12:30:06;3.20;;;2.08;;
63320;SDS011;49449;48.800;9.534;2023-07-30T12:32:35;2.30;;;1.88;;
63320;SDS011;49449;48.800;9.534;2023-07-30T12:35:03;2.28;;;1.83;;
63320;SDS011;49449;48.800;9.534;2023-07-30T12:37:31;2.53;;;1.75;;
63320;SDS011;49449;48.800;9.534;2023-07-30T12:40:01;2.08;;;1.88;;
63320;SDS011;49449;48.800;9.534;2023-07-30T12:42:30;2.60;;;2.08;;
63320;SDS011;49449;48.800;9.534;2023-07-30T12:44:58;2.78;;;1.90;;
63320;SDS011;49449;48.800;9.534;2023-07-30T12:47:27;3.22;;;1.90;;
63320;SDS011;49449;48.800;9.534;2023-07-30T12:49:55;2.42;;;2.22;;
63320;SDS011;49449;48.800;9.534;2023-07-30T12:52:23;1.95;;;1.70;;
63320;SDS011;49449;48.800;9.534;2023-07-30T12:54:50;2.15;;;1.95;;
63320;SDS011;49449;48.800;9.534;2023-07-30T12:57:19;2.03;;;1.92;;
63320;SDS011;49449;48.800;9.534;2023-07-30T12:59:46;2.50;;;2.22;;
63320;SDS011;49449;48.800;9.534;2023-07-30T13:02:14;1.98;;;1.80;;
63320;SDS011;49449;48.800;9.534;2023-07-30T13:04:43;2.33;;;1.90;;
63320;SDS011;49449;48.800;9.534;2023-07-30T13:07:11;1.98;;;1.77;;
63320;SDS011;49449;48.800;9.534;2023-07-30T13:09:39;2.15;;;1.83;;
63320;SDS011;49449;48.800;9.534;2023-07-30T13:12:07;2.45;;;2.10;;
63320;SDS011;49449;48.800;9.534;2023-07-30T13:14:35;3.45;;;2.05;;
63320;SDS011;49449;48.800;9.534;2023-07-30T13:17:03;2.15;;;1.80;;
63320;SDS011;49449;48.800;9.534;2023-07-30T13:19:31;2.65;;;2.47;;
63320;SDS011;49449;48.800;9.534;2023-07-30T13:22:00;2.97;;;1.92;;
63320;SDS011;49449;48.800;9.534;2023-07-30T13:24:28;2.85;;;2.10;;
63320;SDS011;49449;48.800;9.534;2023-07-30T13:26:58;3.72;;;2.25;;
63320;SDS011;49449;48.800;9.534;2023-07-30T13:29:25;2.88;;;1.80;;
63320;SDS011;49449;48.800;9.534;2023-07-30T13:31:53;1.90;;;1.70;;
63320;SDS011;49449;48.800;9.534;2023-07-30T13:34:21;2.60;;;2.00;;
63320;SDS011;49449;48.800;9.534;2023-07-30T13:36:48;2.92;;;1.90;;
63320;SDS011;49449;48.800;9.534;2023-07-30T13:39:18;2.28;;;2.08;;
63320;SDS011;49449;48.800;9.534;2023-07-30T13:41:46;3.38;;;2.15;;
63320;SDS011;49449;48.800;9.534;2023-07-30T13:44:14;3.65;;;2.45;;
63320;SDS011;49449;48.800;9.534;2023-07-30T13:46:42;2.70;;;1.80;;
63320;SDS011;49449;48.800;9.534;2023-07-30T13:49:09;2.83;;;2.50;;
63320;SDS011;49449;48.800;9.534;2023-07-30T13:51:37;1.80;;;1.70;;
63320;SDS011;49449;48.800;9.534;2023-07-30T13:54:05;2.25;;;2.03;;
63320;SDS011;49449;48.800;9.534;2023-07-30T13:56:35;1.95;;;1.85;;
63320;SDS011;49449;48.800;9.534;2023-07-30T13:59:04;2.67;;;2.00;;
63320;SDS011;49449;48.800;9.534;2023-07-30T14:01:32;1.73;;;1.63;;
63320;SDS011;49449;48.800;9.534;2023-07-30T14:04:00;1.63;;;1.50;;
63320;SDS011;49449;48.800;9.534;2023-07-30T14:06:28;2.30;;;1.70;;
63320;SDS011;49449;48.800;9.534;2023-07-30T14:08:57;4.15;;;2.10;;
63320;SDS011;49449;48.800;9.534;2023-07-30T14:11:25;2.85;;;1.80;;
63320;SDS011;49449;48.800;9.534;2023-07-30T14:13:55;3.47;;;1.90;;
63320;SDS011;49449;48.800;9.534;2023-07-30T14:16:24;3.30;;;1.75;;
63320;SDS011;49449;48.800;9.534;2023-07-30T14:18:52;2.58;;;1.73;;
63320;SDS011;49449;48.800;9.534;2023-07-30T14:21:19;2.25;;;1.90;;
63320;SDS011;49449;48.800;9.534;2023-07-30T14:23:47;2.17;;;1.98;;
63320;SDS011;49449;48.800;9.534;2023-07-30T14:26:15;3.10;;;1.50;;
63320;SDS011;49449;48.800;9.534;2023-07-30T14:28:43;5.22;;;1.80;;
63320;SDS011;49449;48.800;9.534;2023-07-30T14:31:12;3.03;;;2.05;;
63320;SDS011;49449;48.800;9.534;2023-07-30T14:33:40;1.92;;;1.50;;
63320;SDS011;49449;48.800;9.534;2023-07-30T14:36:08;2.63;;;1.77;;
63320;SDS011;49449;48.800;9.534;2023-07-30T14:38:37;2.38;;;1.90;;
63320;SDS011;49449;48.800;9.534;2023-07-30T14:41:05;2.22;;;1.67;;
63320;SDS011;49449;48.800;9.534;2023-07-30T14:43:34;1.42;;;1.33;;
63320;SDS011;49449;48.800;9.534;2023-07-30T14:46:02;2.30;;;1.50;;
63320;SDS011;49449;48.800;9.534;2023-07-30T14:48:31;3.05;;;1.88;;
63320;SDS011;49449;48.800;9.534;2023-07-30T14:50:59;3.28;;;2.00;;
63320;SDS011;49449;48.800;9.534;2023-07-30T14:53:27;2.03;;;1.67;;
63320;SDS011;49449;48.800;9.534;2023-07-30T14:55:55;2.47;;;1.67;;
63320;SDS011;49449;48.800;9.534;2023-07-30T14:58:23;2.33;;;1.80;;
63320;SDS011;49449;48.800;9.534;2023-07-30T15:00:50;2.03;;;1.65;;